Time;durP1;ratioP1;P1;durP2;ratioP2;P2;SDS_P1;SDS_P2;PMS_P1;PMS_P2;Temp;Humidity;BMP_temperature;BMP_pressure;BME280_temperature;BME280_humidity;BME280_pressure;Samples;Min_cycle;Max_cycle;Signal;HPM_P1;HPM_P2
2024/01/05 00:01:14;;;;;;;15.77;5.57;;;;;;;7.07;92.91;98913.88;6090412;23;20391;-85
2024/01/05 00:03:41;;;;;;;21.95;5.75;;;;;;;7.11;92.82;98911.78;6091643;23;20342;-85
2024/01/05 00:06:11;;;;;;;17.60;5.88;;;;;;;7.07;92.98;98905.09;6090121;23;20022;-86
2024/01/05 00:08:38;;;;;;;13.00;5.32;;;;;;;7.13;91.98;98894.03;6055847;23;20045;-85
2024/01/05 00:11:04;;;;;;;14.73;5.57;;;;;;;7.09;92.50;98895.25;6078180;23;20033;-85
2024/01/05 00:13:31;;;;;;;14.80;4.80;;;;;;;7.06;92.17;98884.97;6090809;23;20084;-85
2024/01/05 00:15:58;;;;;;;14.93;5.15;;;;;;;7.06;92.58;98877.06;6090380;23;20032;-85
2024/01/05 00:18:26;;;;;;;16.63;4.97;;;;;;;7.00;92.59;98872.34;6091333;23;20018;-84
2024/01/05 00:20:53;;;;;;;19.63;5.25;;;;;;;7.02;92.57;98875.66;6067671;23;20030;-84
2024/01/05 00:23:20;;;;;;;10.60;5.25;;;;;;;7.02;92.18;98875.66;6043788;23;20402;-84
2024/01/05 00:25:47;;;;;;;12.63;5.25;;;;;;;7.05;92.07;98867.47;6067206;23;20026;-84
2024/01/05 00:28:14;;;;;;;24.83;6.55;;;;;;;7.04;91.92;98860.50;6090877;23;20033;-85
2024/01/05 00:30:41;;;;;;;26.20;7.22;;;;;;;7.09;91.81;98855.66;6091077;23;20045;-85
2024/01/05 00:33:08;;;;;;;21.02;7.63;;;;;;;7.10;92.03;98847.59;6087862;23;20030;-85
2024/01/05 00:35:35;;;;;;;22.73;6.88;;;;;;;7.07;91.79;98837.34;6090786;23;20049;-84
2024/01/05 00:38:04;;;;;;;18.85;7.57;;;;;;;7.02;91.73;98839.56;6066278;23;20021;-84
2024/01/05 00:40:31;;;;;;;28.30;6.68;;;;;;;7.06;92.22;98843.56;6067098;23;20073;-85
2024/01/05 00:42:57;;;;;;;16.88;6.50;;;;;;;7.04;92.12;98850.78;6066536;23;20026;-85
2024/01/05 00:45:24;;;;;;;17.33;6.18;;;;;;;7.00;92.46;98854.69;6090733;23;20022;-85
2024/01/05 00:47:52;;;;;;;15.55;5.63;;;;;;;6.97;92.50;98862.84;6066286;23;20749;-85
2024/01/05 00:50:19;;;;;;;19.42;7.10;;;;;;;7.00;92.53;98859.97;6089560;23;20048;-84
2024/01/05 00:52:46;;;;;;;23.33;6.10;;;;;;;6.88;92.38;98856.59;6067788;23;20733;-84
2024/01/05 00:55:12;;;;;;;19.75;5.93;;;;;;;6.86;92.49;98850.63;6115656;23;20030;-85
2024/01/05 00:57:39;;;;;;;15.63;6.47;;;;;;;6.81;92.45;98850.19;6088823;23;20050;-84
2024/01/05 01:00:08;;;;;;;17.33;6.05;;;;;;;6.79;92.78;98852.13;6114605;23;20469;-84
2024/01/05 01:02:37;;;;;;;16.92;6.18;;;;;;;6.87;92.15;98862.88;6066938;23;20102;-84
2024/01/05 01:05:04;;;;;;;31.70;6.57;;;;;;;6.96;92.23;98867.31;6090525;23;20045;-85
2024/01/05 01:07:31;;;;;;;18.45;6.40;;;;;;;6.94;92.14;98863.13;6114281;23;20022;-85
2024/01/05 01:09:58;;;;;;;25.85;8.77;;;;;;;6.91;92.63;98866.88;6090110;23;20038;-85
2024/01/05 01:12:25;;;;;;;20.15;6.97;;;;;;;6.90;92.44;98861.75;6114594;23;20390;-85
2024/01/05 01:14:53;;;;;;;28.70;8.68;;;;;;;6.89;92.87;98858.25;6041753;23;20033;-85
2024/01/05 01:17:22;;;;;;;23.80;7.65;;;;;;;6.87;92.86;98862.00;6089840;23;20047;-85
2024/01/05 01:19:49;;;;;;;20.80;7.20;;;;;;;6.80;93.18;98859.09;6114678;23;20093;-85
2024/01/05 01:22:16;;;;;;;19.10;7.43;;;;;;;6.81;93.65;98854.66;6116438;23;20029;-85
2024/01/05 01:24:43;;;;;;;24.58;7.05;;;;;;;6.83;93.09;98858.81;6089414;23;20022;-84
2024/01/05 01:27:10;;;;;;;23.77;9.05;;;;;;;6.86;93.24;98860.34;6089751;23;20418;-85
2024/01/05 01:29:36;;;;;;;26.40;9.77;;;;;;;6.77;93.76;98862.00;6090056;23;20030;-85
2024/01/05 01:32:03;;;;;;;33.80;10.63;;;;;;;6.76;93.87;98862.97;6089977;23;20018;-85
2024/01/05 01:34:30;;;;;;;29.08;10.80;;;;;;;6.79;94.10;98864.50;6090068;23;20034;-85
2024/01/05 01:36:57;;;;;;;26.77;10.05;;;;;;;6.72;93.88;98857.13;6089392;23;20081;-85
2024/01/05 01:39:26;;;;;;;26.83;10.25;;;;;;;6.79;94.04;98856.56;6080137;23;20014;-85
2024/01/05 01:41:53;;;;;;;38.08;12.15;;;;;;;6.77;94.17;98843.53;6066323;23;20037;-85
2024/01/05 01:44:20;;;;;;;31.25;11.82;;;;;;;6.76;94.71;98836.56;6065897;23;20029;-86
2024/01/05 01:46:47;;;;;;;26.80;10.38;;;;;;;6.78;94.05;98834.63;6114436;23;20049;-85
2024/01/05 01:49:14;;;;;;;33.00;10.52;;;;;;;6.70;94.58;98831.84;6114825;23;20048;-85
2024/01/05 01:51:41;;;;;;;37.97;11.70;;;;;;;6.72;94.18;98827.28;6061662;23;20038;-85
2024/01/05 01:54:08;;;;;;;39.08;11.02;;;;;;;6.77;93.84;98813.66;6085339;23;20046;-85
2024/01/05 01:56:36;;;;;;;38.50;11.30;;;;;;;6.77;94.21;98811.03;6065837;23;20345;-85
2024/01/05 01:59:05;;;;;;;37.30;11.63;;;;;;;6.79;93.92;98809.09;6089049;23;20446;-85
2024/01/05 02:01:32;;;;;;;34.28;12.10;;;;;;;6.74;95.13;98799.78;6090206;23;20414;-86
2024/01/05 02:04:00;;;;;;;24.52;10.95;;;;;;;6.67;95.23;98814.50;6090567;23;20014;-84
2024/01/05 02:06:27;;;;;;;43.58;10.10;;;;;;;6.65;95.06;98811.16;6066211;23;20021;-85
2024/01/05 02:08:55;;;;;;;28.83;10.73;;;;;;;6.61;95.02;98820.28;6063046;23;20026;-85
2024/01/05 02:11:22;;;;;;;39.85;12.18;;;;;;;6.60;95.31;98820.44;6089991;23;20030;-86
2024/01/05 02:13:49;;;;;;;28.48;9.15;;;;;;;6.60;94.51;98820.44;6064846;23;20080;-85
2024/01/05 02:16:16;;;;;;;28.58;9.30;;;;;;;6.48;93.57;98807.34;6112826;23;20053;-85
2024/01/05 02:19:03;;;;;;;25.13;10.10;;;;;;;6.51;93.05;98806.25;6054012;23;24271;-85
2024/01/05 02:21:33;;;;;;;28.60;9.05;;;;;;;6.44;92.58;98802.50;6090018;23;20014;-85
2024/01/05 02:24:00;;;;;;;22.17;8.27;;;;;;;6.48;92.33;98799.44;6089506;23;20030;-85
2024/01/05 02:26:27;;;;;;;14.25;7.45;;;;;;;6.46;92.26;98804.03;6112876;23;20030;-84
2024/01/05 02:28:54;;;;;;;14.40;6.15;;;;;;;6.52;91.70;98798.22;6090410;23;20083;-85
2024/01/05 02:31:21;;;;;;;19.67;7.35;;;;;;;6.51;92.12;98786.00;6065522;23;20061;-85
2024/01/05 02:33:47;;;;;;;15.40;6.78;;;;;;;6.53;91.75;98788.50;6076081;23;20457;-85
2024/01/05 02:36:15;;;;;;;16.80;8.25;;;;;;;6.53;91.27;98789.31;6030308;23;20049;-85
2024/01/05 02:38:41;;;;;;;21.00;7.80;;;;;;;6.49;91.30;98771.28;6042040;23;20029;-85
2024/01/05 02:41:09;;;;;;;13.85;6.13;;;;;;;6.46;91.58;98771.53;6072457;23;20346;-85
2024/01/05 02:43:36;;;;;;;14.10;6.80;;;;;;;6.38;91.62;98772.22;6048637;23;20018;-84
2024/01/05 02:46:03;;;;;;;16.45;6.07;;;;;;;6.42;91.13;98770.16;6084473;23;20049;-85
2024/01/05 02:48:30;;;;;;;19.65;7.22;;;;;;;6.36;91.25;98768.91;6060837;23;20387;-85
2024/01/05 02:50:57;;;;;;;20.02;7.05;;;;;;;6.32;91.22;98756.94;6060726;23;20034;-84
2024/01/05 02:53:24;;;;;;;19.10;7.55;;;;;;;6.39;91.11;98759.88;6063316;23;20025;-85
2024/01/05 02:55:51;;;;;;;18.95;6.90;;;;;;;6.39;90.27;98755.44;6075319;23;20062;-86
2024/01/05 02:58:17;;;;;;;25.75;8.23;;;;;;;6.38;90.64;98753.75;6080382;23;20022;-85
2024/01/05 03:00:44;;;;;;;27.48;9.63;;;;;;;6.30;89.95;98756.25;6088698;23;20018;-84
2024/01/05 03:03:11;;;;;;;24.42;9.98;;;;;;;6.27;90.25;98754.72;6065996;23;22747;-85
2024/01/05 03:05:39;;;;;;;24.75;9.13;;;;;;;6.27;90.12;98756.53;6089997;23;20022;-84
2024/01/05 03:08:06;;;;;;;16.45;7.25;;;;;;;6.30;90.33;98753.59;6088323;23;20033;-85
2024/01/05 03:10:33;;;;;;;14.52;6.57;;;;;;;6.26;89.60;98752.22;6066514;23;22280;-85
2024/01/05 03:13:00;;;;;;;22.30;7.60;;;;;;;6.24;89.90;98748.88;6089514;23;20126;-86
2024/01/05 03:15:26;;;;;;;15.48;6.85;;;;;;;6.18;90.23;98742.38;6099186;23;20097;-85
2024/01/05 03:17:53;;;;;;;19.05;7.90;;;;;;;6.24;89.85;98723.34;6057100;23;20347;-85
2024/01/05 03:20:20;;;;;;;15.75;7.22;;;;;;;6.13;89.52;98720.84;6041616;23;20045;-85
2024/01/05 03:22:49;;;;;;;17.00;7.05;;;;;;;6.11;89.94;98733.31;6063969;23;20025;-85
2024/01/05 03:25:16;;;;;;;13.13;6.45;;;;;;;6.06;89.03;98727.63;6089309;23;20076;-86
2024/01/05 03:27:47;;;;;;;21.73;6.15;;;;;;;6.09;88.68;98720.25;6088553;23;20512;-85
2024/01/05 03:30:14;;;;;;;15.77;6.88;;;;;;;6.05;88.01;98721.50;6080063;23;20092;-86
2024/01/05 03:32:41;;;;;;;14.23;6.63;;;;;;;5.99;88.86;98724.66;6090897;23;20021;-85
2024/01/05 03:35:09;;;;;;;27.55;6.50;;;;;;;5.99;89.38;98726.47;6116011;23;20088;-85
2024/01/05 03:37:35;;;;;;;14.27;5.78;;;;;;;5.97;89.80;98723.13;6092000;23;20017;-85
2024/01/05 03:40:03;;;;;;;20.88;5.80;;;;;;;5.95;89.30;98723.25;6091187;23;20022;-85
2024/01/05 03:42:30;;;;;;;17.05;6.93;;;;;;;5.92;89.07;98706.88;6091811;23;20057;-85
2024/01/05 03:44:56;;;;;;;15.82;6.80;;;;;;;5.83;89.68;98706.72;6091269;23;20022;-84
2024/01/05 03:47:23;;;;;;;18.23;6.63;;;;;;;5.90;90.48;98708.78;6043664;23;20053;-84
2024/01/05 03:49:50;;;;;;;13.52;6.35;;;;;;;5.90;90.47;98700.88;6115352;23;20037;-84
2024/01/05 03:52:17;;;;;;;10.27;5.13;;;;;;;5.84;89.53;98703.09;6067453;23;20025;-84
2024/01/05 03:54:44;;;;;;;17.67;6.72;;;;;;;5.90;88.71;98700.88;6115409;23;20014;-85
2024/01/05 03:57:11;;;;;;;18.08;6.32;;;;;;;5.85;91.05;98704.78;6044140;23;20029;-85
2024/01/05 03:59:37;;;;;;;24.65;7.95;;;;;;;5.74;92.53;98696.97;6090982;23;20025;-85
2024/01/05 04:02:04;;;;;;;22.10;7.50;;;;;;;5.76;93.14;98687.13;6067172;23;20046;-85
2024/01/05 04:04:31;;;;;;;24.95;7.32;;;;;;;5.77;92.35;98686.16;6043888;23;20769;-85
2024/01/05 04:06:58;;;;;;;18.65;6.90;;;;;;;5.77;92.25;98687.97;6090539;23;20029;-85
2024/01/05 04:09:25;;;;;;;13.93;6.63;;;;;;;5.76;91.26;98675.75;6115226;23;20108;-85
2024/01/05 04:11:52;;;;;;;14.10;6.15;;;;;;;5.82;91.48;98681.31;6067282;23;20022;-85
2024/01/05 04:14:19;;;;;;;28.77;7.13;;;;;;;5.88;91.31;98683.44;6066686;23;20026;-85
2024/01/05 04:16:46;;;;;;;17.52;7.13;;;;;;;5.73;92.88;98676.88;6116855;23;20901;-85
2024/01/05 04:19:13;;;;;;;12.80;6.70;;;;;;;5.74;93.17;98675.88;6067217;23;20030;-85
2024/01/05 04:21:40;;;;;;;26.23;7.45;;;;;;;5.77;92.68;98662.44;6091118;23;20021;-85
2024/01/05 04:24:07;;;;;;;15.75;6.65;;;;;;;5.83;92.81;98661.09;6091231;23;20033;-85
2024/01/05 04:26:35;;;;;;;19.17;7.57;;;;;;;5.79;93.58;98663.16;6090270;23;20093;-85
2024/01/05 04:29:02;;;;;;;15.45;6.32;;;;;;;5.77;93.74;98657.16;6090152;23;20022;-85
2024/01/05 04:31:29;;;;;;;21.25;7.05;;;;;;;5.75;93.61;98643.34;6090476;23;20030;-85
2024/01/05 04:33:56;;;;;;;26.23;7.18;;;;;;;5.64;94.10;98640.78;6090822;23;20438;-85
2024/01/05 04:36:23;;;;;;;13.48;6.25;;;;;;;5.69;93.92;98638.56;6089879;23;20017;-85
2024/01/05 04:38:50;;;;;;;12.90;5.32;;;;;;;5.77;93.13;98638.72;6067516;23;20458;-85
2024/01/05 04:41:18;;;;;;;15.23;6.00;;;;;;;5.74;92.34;98630.28;6066032;23;20021;-85
2024/01/05 04:43:46;;;;;;;15.32;6.80;;;;;;;5.69;91.86;98632.47;6090018;23;20025;-85
2024/01/05 04:46:12;;;;;;;13.88;6.43;;;;;;;5.74;91.61;98628.47;6114141;23;20033;-85
2024/01/05 04:48:39;;;;;;;14.93;5.88;;;;;;;5.79;91.85;98628.91;6091115;23;20052;-85
2024/01/05 04:51:06;;;;;;;16.27;7.30;;;;;;;5.88;91.68;98641.28;6052853;23;20034;-85
2024/01/05 04:53:33;;;;;;;21.77;6.85;;;;;;;5.81;91.76;98637.50;6090033;23;20108;-85
2024/01/05 04:56:00;;;;;;;27.75;6.50;;;;;;;5.90;91.80;98643.75;6090429;23;20018;-86
2024/01/05 04:58:27;;;;;;;21.02;6.15;;;;;;;5.89;92.14;98644.75;6059238;23;20483;-85
2024/01/05 05:00:54;;;;;;;20.85;7.70;;;;;;;5.86;93.37;98648.47;6086502;23;20956;-85
2024/01/05 05:03:21;;;;;;;43.85;8.50;;;;;;;5.84;93.47;98649.56;6114330;23;20486;-85
2024/01/05 05:05:48;;;;;;;43.45;7.90;;;;;;;5.82;93.77;98643.59;6114184;23;20026;-86
2024/01/05 05:08:15;;;;;;;24.35;7.68;;;;;;;5.85;93.57;98638.91;6090954;23;20439;-85
2024/01/05 05:10:43;;;;;;;25.67;7.40;;;;;;;5.84;93.32;98641.66;6065534;23;20022;-85
2024/01/05 05:13:10;;;;;;;18.50;7.88;;;;;;;5.81;93.39;98640.16;6066417;23;20029;-85
2024/01/05 05:15:38;;;;;;;16.60;7.15;;;;;;;5.86;93.17;98647.66;6090618;23;20029;-85
2024/01/05 05:18:05;;;;;;;17.38;7.63;;;;;;;5.81;93.76;98640.16;6112474;23;20026;-85
2024/01/05 05:20:32;;;;;;;33.10;10.05;;;;;;;5.87;93.23;98651.94;6066075;23;20022;-85
2024/01/05 05:22:59;;;;;;;25.77;8.23;;;;;;;5.80;93.82;98654.28;6088953;23;20077;-86
2024/01/05 05:25:26;;;;;;;34.05;9.52;;;;;;;5.82;94.46;98656.78;6089902;23;20017;-85
2024/01/05 05:27:53;;;;;;;28.02;9.10;;;;;;;5.85;94.31;98660.00;6088673;23;20030;-85
2024/01/05 05:30:20;;;;;;;45.78;9.88;;;;;;;5.79;95.31;98651.78;6116085;23;20409;-85
2024/01/05 05:32:47;;;;;;;30.63;10.00;;;;;;;5.85;95.49;98648.59;6114289;23;20050;-85
2024/01/05 05:35:14;;;;;;;34.00;9.85;;;;;;;5.85;95.75;98660.00;6089222;23;20346;-85
2024/01/05 05:37:41;;;;;;;21.95;9.48;;;;;;;5.81;95.63;98668.28;6090382;23;20021;-85
2024/01/05 05:40:09;;;;;;;40.75;10.10;;;;;;;5.78;95.78;98656.22;6065250;23;20026;-85
2024/01/05 05:42:36;;;;;;;28.50;10.73;;;;;;;5.78;96.79;98652.75;6089875;23;20101;-85
2024/01/05 05:45:03;;;;;;;38.13;9.20;;;;;;;5.84;95.87;98645.13;6089557;23;20093;-85
2024/01/05 05:47:31;;;;;;;27.10;9.30;;;;;;;5.85;95.48;98645.97;6089944;23;20025;-85
2024/01/05 05:49:58;;;;;;;23.38;9.02;;;;;;;5.84;95.44;98639.03;6088219;23;20029;-85
2024/01/05 05:52:25;;;;;;;31.55;10.52;;;;;;;5.85;95.27;98633.66;6089013;23;20034;-86
2024/01/05 05:54:56;;;;;;;31.45;11.23;;;;;;;5.84;95.22;98644.31;6089999;23;20030;-85
2024/01/05 05:57:23;;;;;;;30.63;10.05;;;;;;;5.84;95.07;98646.94;6103044;23;20014;-85
2024/01/05 05:59:51;;;;;;;36.45;10.32;;;;;;;5.84;95.02;98628.50;6049473;23;20025;-85
2024/01/05 06:02:18;;;;;;;39.15;10.55;;;;;;;5.89;94.96;98642.09;6090330;23;20049;-85
2024/01/05 06:04:45;;;;;;;23.13;10.30;;;;;;;5.84;94.79;98639.88;6090333;23;20026;-85
2024/01/05 06:07:13;;;;;;;18.88;9.68;;;;;;;5.81;95.58;98634.06;6075733;23;20049;-85
2024/01/05 06:09:42;;;;;;;17.65;8.75;;;;;;;5.79;95.46;98641.25;6113238;23;20022;-85
2024/01/05 06:12:10;;;;;;;24.90;9.75;;;;;;;5.87;95.14;98641.41;6113478;23;20022;-86
2024/01/05 06:14:38;;;;;;;20.63;9.27;;;;;;;5.83;95.63;98647.91;6066102;23;20018;-85
2024/01/05 06:17:05;;;;;;;21.40;9.80;;;;;;;5.78;95.39;98653.59;6041971;23;20025;-85
2024/01/05 06:19:31;;;;;;;20.05;9.13;;;;;;;5.84;95.58;98654.84;6089700;23;20024;-86
2024/01/05 06:21:59;;;;;;;22.20;9.38;;;;;;;5.86;95.30;98664.28;6090104;23;20018;-85
2024/01/05 06:24:28;;;;;;;20.10;8.98;;;;;;;5.87;95.48;98668.56;6113250;23;20021;-85
2024/01/05 06:26:55;;;;;;;17.23;8.90;;;;;;;5.88;94.89;98656.25;6112787;23;20022;-85
2024/01/05 06:29:21;;;;;;;15.50;8.60;;;;;;;5.90;94.96;98661.38;6089846;23;20884;-86
2024/01/05 06:31:48;;;;;;;18.10;8.85;;;;;;;5.92;95.05;98664.72;6066012;23;20621;-85
2024/01/05 06:34:15;;;;;;;15.13;7.60;;;;;;;5.92;94.41;98678.72;6100108;23;20101;-85
2024/01/05 06:36:43;;;;;;;14.32;7.10;;;;;;;5.88;95.08;98687.88;6067093;23;20041;-85
2024/01/05 06:39:10;;;;;;;17.38;6.60;;;;;;;5.93;94.41;98692.72;6089813;23;20081;-85
2024/01/05 06:41:36;;;;;;;15.45;6.25;;;;;;;5.95;93.49;98694.28;6114223;23;20041;-85
2024/01/05 06:44:04;;;;;;;15.73;5.63;;;;;;;5.99;92.82;98690.41;6041948;23;20093;-83
2024/01/05 06:46:31;;;;;;;15.10;7.40;;;;;;;5.94;93.03;98690.00;6065198;23;20390;-83
2024/01/05 06:48:58;;;;;;;19.33;7.97;;;;;;;5.99;93.35;98684.31;6088759;23;20026;-83
2024/01/05 06:51:29;;;;;;;18.23;8.15;;;;;;;5.95;93.81;98675.84;6065223;23;20021;-84
2024/01/05 06:53:57;;;;;;;23.30;9.43;;;;;;;5.92;93.46;98689.25;6090134;23;20550;-85
2024/01/05 06:56:27;;;;;;;38.42;13.32;;;;;;;5.96;93.16;98688.06;6077225;23;20053;-82
2024/01/05 06:58:55;;;;;;;60.05;23.15;;;;;;;5.92;94.00;98688.41;6113123;23;20454;-82
2024/01/05 07:01:22;;;;;;;26.05;10.10;;;;;;;5.97;94.57;98675.72;6113200;23;20100;-83
2024/01/05 07:03:49;;;;;;;19.17;8.85;;;;;;;5.95;94.77;98675.00;6089485;23;20025;-83
2024/01/05 07:06:16;;;;;;;26.38;9.60;;;;;;;5.94;95.03;98686.53;6067981;23;20021;-83
2024/01/05 07:08:43;;;;;;;30.23;9.77;;;;;;;5.93;95.31;98679.53;6091303;23;20051;-83
2024/01/05 07:11:22;;;;;;;24.90;9.18;;;;;;;5.95;94.92;98683.72;6042981;23;20030;-83
2024/01/05 07:13:49;;;;;;;18.27;9.63;;;;;;;6.03;94.40;98689.19;6091478;23;20642;-83
2024/01/05 07:16:20;;;;;;;19.20;9.13;;;;;;;6.02;94.28;98681.41;6067003;23;20057;-83
2024/01/05 07:18:47;;;;;;;18.63;10.13;;;;;;;6.06;94.34;98688.91;6067429;23;20033;-83
2024/01/05 07:21:15;;;;;;;20.13;8.45;;;;;;;6.03;94.79;98685.69;6115507;23;20057;-83
2024/01/05 07:23:43;;;;;;;20.13;8.82;;;;;;;5.94;95.37;98682.09;6038945;23;20313;-84
2024/01/05 07:26:10;;;;;;;22.02;9.73;;;;;;;5.94;96.15;98678.63;6062391;23;20037;-83
2024/01/05 07:28:37;;;;;;;19.27;9.07;;;;;;;5.92;95.41;98676.06;6038938;23;20026;-83
2024/01/05 07:31:08;;;;;;;23.45;10.32;;;;;;;5.88;95.50;98682.59;6087299;23;20032;-84
2024/01/05 07:33:42;;;;;;;23.88;13.32;;;;;;;5.98;95.29;98685.28;6093234;23;20018;-83
2024/01/05 07:36:09;;;;;;;21.00;11.50;;;;;;;5.96;96.25;98684.59;6066573;23;20124;-84
2024/01/05 07:38:36;;;;;;;25.30;10.27;;;;;;;5.96;96.40;98688.06;6091498;23;20030;-83
2024/01/05 07:41:03;;;;;;;18.23;8.65;;;;;;;5.97;95.99;98678.34;6090847;23;20092;-84
2024/01/05 07:43:30;;;;;;;17.90;9.07;;;;;;;5.98;96.43;98683.50;6091100;23;20026;-83
2024/01/05 07:45:57;;;;;;;22.80;9.13;;;;;;;6.05;95.75;98681.13;6090924;23;20026;-84
2024/01/05 07:48:25;;;;;;;20.30;9.32;;;;;;;6.04;96.03;98675.03;6091541;23;20024;-83
2024/01/05 07:50:52;;;;;;;18.55;8.45;;;;;;;6.06;95.65;98675.75;6090616;23;20025;-83
2024/01/05 07:53:19;;;;;;;21.17;9.50;;;;;;;5.99;96.28;98668.50;6066132;23;20489;-85
2024/01/05 07:55:46;;;;;;;21.70;9.00;;;;;;;6.00;96.19;98676.25;6077773;23;20101;-85
2024/01/05 07:58:13;;;;;;;26.40;9.85;;;;;;;5.99;96.26;98666.69;6090182;23;20014;-82
2024/01/05 08:00:39;;;;;;;19.48;8.60;;;;;;;6.00;96.28;98667.53;6113547;23;20045;-83
2024/01/05 08:03:07;;;;;;;17.67;8.52;;;;;;;5.99;96.30;98666.69;6067203;23;20037;-82
2024/01/05 08:05:34;;;;;;;21.08;8.85;;;;;;;5.99;97.43;98669.34;6091221;23;20045;-82
2024/01/05 08:08:00;;;;;;;25.08;9.48;;;;;;;6.02;96.64;98665.59;6090520;23;20030;-82
2024/01/05 08:10:27;;;;;;;23.40;9.27;;;;;;;5.97;97.05;98668.63;6067112;23;20026;-82
2024/01/05 08:12:54;;;;;;;27.02;8.65;;;;;;;6.00;97.02;98657.81;6066568;23;20028;-82
2024/01/05 08:15:21;;;;;;;19.58;8.95;;;;;;;6.07;96.43;98658.13;6067280;23;20030;-82
2024/01/05 08:18:02;;;;;;;20.75;8.85;;;;;;;6.07;96.33;98650.22;6042644;23;20038;-82
2024/01/05 08:20:29;;;;;;;21.73;9.15;;;;;;;6.08;96.67;98641.31;6139134;23;20026;-82
2024/01/05 08:23:00;;;;;;;24.40;8.90;;;;;;;6.07;96.79;98640.50;6066712;23;20048;-82
2024/01/05 08:25:27;;;;;;;21.23;9.48;;;;;;;6.06;97.08;98643.28;6065796;23;20018;-82
2024/01/05 08:27:53;;;;;;;20.77;9.77;;;;;;;6.09;96.89;98637.75;6090897;23;20024;-83
2024/01/05 08:30:21;;;;;;;21.63;10.15;;;;;;;6.11;96.68;98638.44;6067082;23;20022;-82
2024/01/05 08:32:51;;;;;;;29.73;8.80;;;;;;;6.13;96.42;98638.28;6049643;23;20029;-82
2024/01/05 08:35:19;;;;;;;17.58;8.57;;;;;;;6.09;97.05;98643.84;6072669;23;20029;-83
2024/01/05 08:37:45;;;;;;;17.73;8.00;;;;;;;6.10;97.71;98636.75;6091344;23;22087;-82
2024/01/05 08:40:12;;;;;;;16.77;7.93;;;;;;;6.14;97.21;98632.06;6066733;23;20025;-82
2024/01/05 08:42:40;;;;;;;17.70;8.05;;;;;;;6.12;97.33;98637.47;6090514;23;20025;-82
2024/01/05 08:45:08;;;;;;;20.23;7.20;;;;;;;6.16;96.96;98638.88;6090821;23;20190;-83
2024/01/05 08:47:43;;;;;;;22.42;8.02;;;;;;;6.18;96.48;98641.34;6094024;23;20021;-82
2024/01/05 08:50:10;;;;;;;21.33;7.93;;;;;;;6.18;96.49;98651.88;6065619;23;20022;-82
2024/01/05 08:52:37;;;;;;;22.45;7.95;;;;;;;6.20;96.58;98650.78;6091042;23;20021;-82
2024/01/05 08:55:05;;;;;;;19.60;7.97;;;;;;;6.24;96.26;98654.81;6090444;23;20100;-82
2024/01/05 08:57:31;;;;;;;20.05;7.85;;;;;;;6.24;96.83;98654.81;6089653;23;20033;-82
2024/01/05 08:59:58;;;;;;;17.52;7.70;;;;;;;6.23;97.75;98649.66;6090027;23;20072;-82
2024/01/05 09:02:26;;;;;;;15.32;7.30;;;;;;;6.24;98.12;98654.81;6113946;23;20028;-86
2024/01/05 09:04:53;;;;;;;27.65;8.75;;;;;;;6.25;98.49;98658.28;6113263;23;20050;-86
2024/01/05 09:07:20;;;;;;;22.83;8.95;;;;;;;6.29;98.68;98659.69;6066244;23;20375;-85
2024/01/05 09:09:46;;;;;;;21.33;9.15;;;;;;;6.27;98.75;98659.81;6060910;23;20022;-86
2024/01/05 09:12:13;;;;;;;24.77;10.32;;;;;;;6.30;98.51;98662.16;6059521;23;20105;-85
2024/01/05 09:14:41;;;;;;;26.10;9.40;;;;;;;6.29;98.75;98649.13;6049919;23;20029;-85
2024/01/05 09:17:10;;;;;;;22.85;8.98;;;;;;;6.33;98.20;98660.22;6049410;23;20048;-85
2024/01/05 09:19:36;;;;;;;32.47;10.52;;;;;;;6.32;97.92;98666.50;6115587;23;20362;-84
2024/01/05 09:22:03;;;;;;;23.75;8.75;;;;;;;6.35;97.22;98672.31;6088407;23;20116;-83
2024/01/05 09:24:31;;;;;;;20.80;9.35;;;;;;;6.39;97.14;98678.97;6066724;23;20026;-83
2024/01/05 09:26:58;;;;;;;20.77;8.50;;;;;;;6.40;97.63;98674.53;6065858;23;20018;-83
2024/01/05 09:29:27;;;;;;;25.48;9.52;;;;;;;6.43;97.38;98680.34;6076337;23;20458;-83
2024/01/05 09:31:54;;;;;;;28.63;10.05;;;;;;;6.44;98.29;98691.75;6066938;23;20092;-83
2024/01/05 09:34:20;;;;;;;26.75;9.95;;;;;;;6.43;98.48;98695.34;6089753;23;20081;-83
2024/01/05 09:36:48;;;;;;;26.35;10.57;;;;;;;6.44;98.21;98684.69;6089890;23;20022;-83
2024/01/05 09:39:34;;;;;;;25.92;10.57;;;;;;;6.45;97.63;98682.88;6094292;23;20097;-83
2024/01/05 09:42:22;;;;;;;23.88;9.25;;;;;;;6.45;97.75;98675.78;6035564;23;20080;-83
2024/01/05 09:45:10;;;;;;;24.63;9.85;;;;;;;6.51;97.69;98679.66;6064602;23;20026;-83
2024/01/05 09:47:57;;;;;;;26.05;10.55;;;;;;;6.54;97.97;98674.13;6093333;23;20085;-84
2024/01/05 09:50:53;;;;;;;36.50;12.98;;;;;;;6.55;98.60;98678.44;6067812;23;20126;-83
2024/01/05 09:53:39;;;;;;;33.22;10.85;;;;;;;6.64;98.27;98682.88;6113729;23;20026;-82
2024/01/05 09:56:27;;;;;;;28.17;12.05;;;;;;;6.69;98.33;98688.56;6073970;23;20022;-82
2024/01/05 09:59:17;;;;;;;29.70;13.95;;;;;;;6.74;98.28;98677.56;6092090;23;20037;-83
2024/01/05 10:02:08;;;;;;;37.38;12.90;;;;;;;6.80;98.40;98676.22;6054844;23;20081;-83
2024/01/05 10:04:55;;;;;;;27.17;10.45;;;;;;;6.85;98.42;98677.44;6073755;23;20445;-83
2024/01/05 10:07:43;;;;;;;36.38;14.27;;;;;;;6.89;98.20;98672.72;6114354;23;20018;-83
2024/01/05 10:11:01;;;;;;;33.42;12.55;;;;;;;6.87;98.65;98686.06;6094360;23;20022;-83
2024/01/05 10:13:55;;;;;;;41.15;13.52;;;;;;;6.91;97.77;98683.97;6069928;23;20030;-83
2024/01/05 10:16:43;;;;;;;29.20;11.90;;;;;;;6.94;97.43;98688.94;6073555;23;20033;-84
2024/01/05 10:19:31;;;;;;;30.75;12.65;;;;;;;6.92;97.36;98678.56;6114179;23;20018;-83
2024/01/05 10:22:19;;;;;;;33.67;13.50;;;;;;;6.95;97.26;98675.63;6073928;23;20029;-83
2024/01/05 10:25:16;;;;;;;31.63;13.32;;;;;;;6.94;97.32;98684.50;6093562;23;20030;-82
2024/01/05 10:28:37;;;;;;;28.50;12.00;;;;;;;6.93;97.69;98688.13;6064197;23;20089;-82
2024/01/05 10:31:24;;;;;;;29.38;11.50;;;;;;;6.99;97.92;98680.63;6055052;23;20017;-82
2024/01/05 10:34:11;;;;;;;26.33;9.90;;;;;;;7.00;97.77;98687.59;6074352;23;20018;-82
2024/01/05 10:37:05;;;;;;;24.17;9.13;;;;;;;6.98;97.93;98690.34;6073723;23;20026;-83
2024/01/05 10:39:52;;;;;;;22.45;10.55;;;;;;;7.01;98.03;98683.97;6092717;23;20101;-83
2024/01/05 10:42:39;;;;;;;24.20;10.13;;;;;;;7.04;98.00;98687.13;6093785;23;20465;-82
2024/01/05 10:45:26;;;;;;;31.42;11.25;;;;;;;7.07;98.44;98676.31;6094336;23;20025;-82
2024/01/05 10:48:13;;;;;;;31.80;11.90;;;;;;;7.09;98.08;98678.78;6053351;23;20101;-82
2024/01/05 10:51:01;;;;;;;25.55;10.35;;;;;;;7.10;98.61;98677.84;6073426;23;20072;-83
2024/01/05 10:53:49;;;;;;;20.08;9.77;;;;;;;7.12;98.19;98670.59;6079740;23;20046;-82
2024/01/05 10:56:38;;;;;;;27.33;9.52;;;;;;;7.12;98.19;98663.53;6071966;23;20022;-82
2024/01/05 10:59:25;;;;;;;18.15;8.48;;;;;;;7.14;97.78;98671.28;6064900;23;20033;-83
2024/01/05 11:02:35;;;;;;;18.65;8.68;;;;;;;7.10;97.89;98660.19;6093622;23;20030;-84
2024/01/05 11:05:23;;;;;;;23.58;9.27;;;;;;;7.13;98.26;98661.72;6074051;23;20040;-83
2024/01/05 11:08:28;;;;;;;24.42;10.35;;;;;;;7.06;99.45;98648.25;6073442;23;20030;-83
2024/01/05 11:11:24;;;;;;;21.95;10.52;;;;;;;7.04;99.06;98646.72;6092871;23;20038;-83
2024/01/05 11:14:22;;;;;;;36.50;12.73;;;;;;;7.01;99.58;98639.91;6133891;23;20025;-83
2024/01/05 11:17:14;;;;;;;29.52;12.75;;;;;;;7.05;99.26;98640.47;6092341;23;20026;-82
2024/01/05 11:20:30;;;;;;;28.33;12.57;;;;;;;7.03;99.44;98626.59;6133152;23;20073;-82
2024/01/05 11:23:19;;;;;;;34.92;12.60;;;;;;;7.08;98.66;98619.06;6008831;23;20022;-83
2024/01/05 11:26:06;;;;;;;32.05;12.98;;;;;;;7.10;98.33;98625.03;6092781;23;20021;-82
2024/01/05 11:28:55;;;;;;;24.60;12.00;;;;;;;7.12;98.23;98626.56;6083122;23;20470;-82
2024/01/05 11:31:47;;;;;;;29.05;12.73;;;;;;;7.13;97.98;98624.75;6073847;23;20096;-83
2024/01/05 11:34:35;;;;;;;34.22;13.18;;;;;;;7.14;97.91;98621.94;6113977;23;20032;-83
2024/01/05 11:37:30;;;;;;;28.05;11.98;;;;;;;7.14;98.44;98621.13;6073471;23;20030;-83
2024/01/05 11:40:32;;;;;;;28.52;12.73;;;;;;;7.14;99.21;98616.66;6093761;23;20026;-83
2024/01/05 11:43:33;;;;;;;32.00;12.10;;;;;;;7.15;98.51;98614.88;6072719;23;20026;-84
2024/01/05 11:46:22;;;;;;;34.05;11.70;;;;;;;7.17;98.80;98613.75;6114102;23;20093;-84
2024/01/05 11:49:34;;;;;;;34.85;12.68;;;;;;;7.15;99.04;98599.88;6093038;23;20683;-83
2024/01/05 11:52:21;;;;;;;27.23;10.95;;;;;;;7.20;98.72;98598.59;6059179;23;20449;-83